Time;durP1;ratioP1;P1;durP2;ratioP2;P2;SDS_P1;SDS_P2;PMS_P1;PMS_P2;Temp;Humidity;BMP_temperature;BMP_pressure;BME280_temperature;BME280_humidity;BME280_pressure;Samples;Min_cycle;Max_cycle;Signal;HPM_P1;HPM_P2
2022/05/04 00:00:21;;;;;;;2.90;1.35;;;21.00;41.30;;;;;;4943763;29;20599;-62
2022/05/04 00:02:47;;;;;;;2.58;1.35;;;21.00;41.20;;;;;;4944224;29;20031;-61
2022/05/04 00:05:13;;;;;;;3.05;1.27;;;21.00;41.20;;;;;;4944513;28;20903;-61
2022/05/04 00:07:39;;;;;;;4.20;1.25;;;21.00;42.00;;;;;;4944245;28;20424;-60
2022/05/04 00:10:06;;;;;;;3.10;1.40;;;20.90;41.10;;;;;;4945411;28;20062;-60
2022/05/04 00:12:32;;;;;;;2.42;1.10;;;21.00;41.20;;;;;;4945071;29;20435;-61
2022/05/04 00:14:58;;;;;;;3.42;1.40;;;21.00;41.20;;;;;;4945377;28;20115;-60
2022/05/04 00:17:24;;;;;;;2.63;1.27;;;20.90;41.10;;;;;;4944174;29;20043;-60
2022/05/04 00:19:49;;;;;;;2.60;1.27;;;20.90;41.10;;;;;;4952002;28;20110;-60
2022/05/04 00:22:19;;;;;;;3.47;1.38;;;20.90;41.10;;;;;;4945170;28;20114;-60
2022/05/04 00:24:46;;;;;;;4.57;1.55;;;20.90;41.10;;;;;;4945397;28;20047;-60
2022/05/04 00:27:14;;;;;;;2.45;1.17;;;20.90;41.80;;;;;;4943826;29;20098;-60
2022/05/04 00:29:40;;;;;;;2.50;1.20;;;20.90;41.00;;;;;;4944417;29;20122;-60
2022/05/04 00:32:06;;;;;;;2.65;1.33;;;20.90;41.00;;;;;;4939609;28;20194;-61
2022/05/04 00:34:31;;;;;;;3.88;1.60;;;20.80;41.00;;;;;;4957429;28;20156;-61
2022/05/04 00:37:01;;;;;;;3.47;1.20;;;20.80;40.90;;;;;;4942666;28;20130;-60
2022/05/04 00:39:27;;;;;;;3.47;1.10;;;20.80;40.90;;;;;;4942994;28;20043;-60
2022/05/04 00:41:52;;;;;;;3.38;1.17;;;20.80;40.80;;;;;;4943775;28;20031;-60
2022/05/04 00:44:18;;;;;;;3.80;1.35;;;20.80;40.90;;;;;;4943647;28;20466;-60
2022/05/04 00:46:43;;;;;;;2.20;1.30;;;20.80;40.90;;;;;;4943781;28;20373;-59
2022/05/04 00:49:09;;;;;;;2.33;1.25;;;20.80;40.80;;;;;;4943779;28;20093;-60
2022/05/04 00:51:36;;;;;;;2.33;1.13;;;20.80;41.60;;;;;;4942180;28;20039;-61
2022/05/04 00:54:03;;;;;;;3.92;1.20;;;20.80;41.60;;;;;;4943053;29;20523;-60
2022/05/04 00:56:30;;;;;;;4.30;1.40;;;20.80;40.80;;;;;;4942606;29;20048;-60
2022/05/04 00:58:57;;;;;;;3.40;1.83;;;20.80;40.80;;;;;;4943598;28;20040;-61
2022/05/04 01:01:26;;;;;;;3.67;1.20;;;20.80;40.80;;;;;;4943788;28;20035;-60
2022/05/04 01:03:57;;;;;;;2.20;1.05;;;20.70;40.70;;;;;;4943693;28;20071;-61
2022/05/04 01:06:24;;;;;;;2.80;1.30;;;20.70;40.70;;;;;;4943427;29;20094;-61
2022/05/04 01:08:50;;;;;;;2.08;1.10;;;20.70;40.70;;;;;;4943884;29;20051;-61
2022/05/04 01:11:17;;;;;;;4.00;1.45;;;20.70;40.60;;;;;;4942610;28;20047;-61
2022/05/04 01:13:43;;;;;;;3.85;1.73;;;20.70;40.60;;;;;;4943030;28;20538;-61
2022/05/04 01:16:09;;;;;;;3.00;1.27;;;20.70;40.60;;;;;;4944904;28;20047;-60
2022/05/04 01:18:35;;;;;;;3.03;1.45;;;20.70;40.70;;;;;;4947777;28;20039;-60
2022/05/04 01:21:02;;;;;;;1.75;1.05;;;20.70;40.70;;;;;;4947373;28;20448;-60
2022/05/04 01:23:28;;;;;;;3.88;1.48;;;20.70;40.60;;;;;;4947899;29;20079;-60
2022/05/04 01:25:53;;;;;;;3.05;1.45;;;20.70;40.60;;;;;;4948172;29;20105;-61
2022/05/04 01:28:20;;;;;;;2.22;1.23;;;20.70;40.60;;;;;;4947840;28;20130;-60
2022/05/04 01:30:45;;;;;;;3.40;1.13;;;20.70;40.60;;;;;;4946707;28;20043;-61
2022/05/04 01:33:11;;;;;;;1.92;1.10;;;20.70;40.60;;;;;;4946988;28;20053;-61
2022/05/04 01:35:37;;;;;;;2.17;1.45;;;20.70;40.60;;;;;;4948258;28;20090;-61
2022/05/04 01:38:02;;;;;;;2.30;1.20;;;20.60;40.50;;;;;;4948033;28;20128;-60
2022/05/04 01:40:28;;;;;;;3.50;1.60;;;20.60;40.50;;;;;;4946805;28;20047;-60
2022/05/04 01:42:54;;;;;;;2.05;1.30;;;20.60;40.50;;;;;;4946647;29;20035;-60
2022/05/04 01:45:19;;;;;;;1.98;1.30;;;20.60;40.50;;;;;;4947687;28;20491;-60
2022/05/04 01:47:48;;;;;;;2.75;1.50;;;20.60;40.50;;;;;;4946469;28;20050;-60
2022/05/04 01:50:14;;;;;;;3.78;1.33;;;20.60;40.40;;;;;;4947784;29;20047;-61
2022/05/04 01:52:40;;;;;;;2.20;1.35;;;20.60;40.50;;;;;;4946760;28;20049;-60
2022/05/04 01:55:06;;;;;;;3.75;1.50;;;20.60;40.50;;;;;;4947724;28;20107;-60
2022/05/04 01:57:32;;;;;;;3.00;1.33;;;20.50;40.40;;;;;;4945758;29;20735;-60
2022/05/04 01:59:57;;;;;;;2.85;1.00;;;20.60;40.40;;;;;;4946612;28;20121;-61
2022/05/04 02:02:25;;;;;;;3.28;1.20;;;20.60;40.40;;;;;;4939682;28;20141;-61
2022/05/04 02:04:51;;;;;;;2.75;1.30;;;20.60;40.40;;;;;;4941966;29;20047;-61
2022/05/04 02:07:17;;;;;;;2.63;1.20;;;20.60;40.40;;;;;;4944930;28;20050;-61
2022/05/04 02:09:42;;;;;;;3.95;1.15;;;20.50;40.30;;;;;;4946448;29;20043;-61
2022/05/04 02:12:08;;;;;;;2.30;1.20;;;20.50;40.30;;;;;;4945472;28;20043;-61
2022/05/04 02:14:34;;;;;;;3.30;1.45;;;20.50;40.30;;;;;;4945022;28;20110;-60
2022/05/04 02:17:00;;;;;;;4.05;1.30;;;20.50;40.30;;;;;;4946292;29;20051;-61
2022/05/04 02:19:26;;;;;;;2.97;1.38;;;20.50;40.20;;;;;;4944201;29;20091;-61
2022/05/04 02:21:52;;;;;;;2.67;1.20;;;20.50;40.20;;;;;;4940233;29;20384;-60
2022/05/04 02:24:18;;;;;;;3.05;1.30;;;20.50;40.30;;;;;;4945190;28;20043;-61
2022/05/04 02:26:43;;;;;;;2.17;1.27;;;20.50;41.00;;;;;;4946264;28;20403;-60
2022/05/04 02:29:09;;;;;;;2.80;1.30;;;20.50;40.20;;;;;;4944703;29;20051;-61
2022/05/04 02:31:34;;;;;;;2.25;1.13;;;20.50;40.20;;;;;;4945832;28;20535;-61
2022/05/04 02:34:00;;;;;;;2.92;1.15;;;20.50;40.20;;;;;;4945763;28;20051;-61
2022/05/04 02:39:10;;;;;;;2.47;1.20;;;20.50;40.30;;;;;;4946711;29;20085;-60
2022/05/04 02:41:36;;;;;;;2.63;1.40;;;20.50;40.20;;;;;;4945888;28;20491;-61
2022/05/04 02:44:01;;;;;;;4.85;1.60;;;20.50;40.30;;;;;;4945147;28;20031;-60
2022/05/04 02:46:29;;;;;;;2.08;1.00;;;20.40;40.20;;;;;;4946339;28;20039;-60
2022/05/04 02:48:56;;;;;;;2.15;1.02;;;20.40;40.30;;;;;;4944835;29;20074;-61
2022/05/04 02:51:21;;;;;;;2.42;1.35;;;20.40;40.20;;;;;;4945862;28;20826;-61
2022/05/04 02:53:47;;;;;;;2.13;1.13;;;20.40;40.20;;;;;;4946275;28;20118;-61
2022/05/04 02:56:15;;;;;;;3.10;1.50;;;20.40;40.20;;;;;;4946047;28;20126;-60
2022/05/04 02:58:44;;;;;;;3.25;1.20;;;20.40;40.20;;;;;;4943961;28;20043;-60
2022/05/04 03:04:02;;;;;;;4.05;1.85;;;20.40;40.20;;;;;;4944485;29;20078;-61
2022/05/04 03:06:28;;;;;;;3.55;1.50;;;20.40;40.20;;;;;;4939822;29;20046;-60
2022/05/04 03:08:54;;;;;;;3.15;1.15;;;20.30;40.10;;;;;;4942016;29;20090;-60
2022/05/04 03:14:07;;;;;;;2.58;1.10;;;20.40;40.20;;;;;;4944977;29;20492;-60
2022/05/04 03:16:33;;;;;;;2.38;1.25;;;20.40;40.20;;;;;;4945007;28;20043;-60
2022/05/04 03:18:58;;;;;;;1.60;1.08;;;20.40;40.20;;;;;;4942859;29;20047;-61
2022/05/04 03:21:24;;;;;;;2.30;1.30;;;20.30;40.20;;;;;;4946333;28;20050;-61
2022/05/04 03:23:49;;;;;;;2.90;1.30;;;20.40;40.20;;;;;;4945776;28;20046;-61
2022/05/04 03:26:15;;;;;;;3.30;1.20;;;20.40;40.20;;;;;;4945208;28;20105;-60
2022/05/04 03:28:40;;;;;;;3.85;1.63;;;20.30;40.20;;;;;;4945318;29;20050;-61
2022/05/04 03:31:06;;;;;;;3.63;1.30;;;20.30;40.20;;;;;;4944964;28;20193;-60
2022/05/04 03:33:32;;;;;;;3.20;1.17;;;20.30;40.20;;;;;;4945391;28;20059;-60
2022/05/04 03:35:57;;;;;;;3.33;1.75;;;20.30;40.20;;;;;;4944422;28;20062;-61
2022/05/04 03:38:23;;;;;;;3.35;1.50;;;20.30;40.20;;;;;;4945141;28;20035;-61
2022/05/04 03:40:49;;;;;;;1.83;1.27;;;20.30;40.30;;;;;;4944852;28;20455;-60
2022/05/04 03:43:14;;;;;;;2.63;1.33;;;20.30;40.70;;;;;;4944944;28;20822;-61
2022/05/04 03:45:40;;;;;;;3.17;1.23;;;20.30;40.30;;;;;;4944816;28;20043;-60
2022/05/04 03:48:06;;;;;;;2.95;1.30;;;20.30;40.30;;;;;;4943586;28;20662;-60
2022/05/04 03:50:31;;;;;;;2.55;1.40;;;20.30;40.30;;;;;;4945288;28;20180;-60
2022/05/04 03:52:57;;;;;;;3.78;1.30;;;20.30;40.30;;;;;;4936974;29;20039;-60
2022/05/04 03:55:22;;;;;;;3.53;1.42;;;20.30;40.30;;;;;;4945309;28;20499;-60
2022/05/04 03:57:50;;;;;;;4.10;1.65;;;20.30;40.30;;;;;;4944537;29;20047;-61
2022/05/04 04:00:16;;;;;;;2.40;1.30;;;20.30;40.30;;;;;;4941801;28;20043;-61
2022/05/04 04:02:42;;;;;;;1.83;1.10;;;20.30;40.30;;;;;;4940441;28;20043;-60
2022/05/04 04:05:08;;;;;;;3.25;1.30;;;20.20;40.20;;;;;;4943396;28;20031;-60
2022/05/04 04:07:34;;;;;;;2.65;1.10;;;20.30;40.30;;;;;;4943727;28;20047;-59
2022/05/04 04:09:59;;;;;;;4.25;1.50;;;20.30;40.30;;;;;;4944914;28;20386;-61
2022/05/04 04:12:25;;;;;;;3.53;1.40;;;20.20;40.20;;;;;;4944912;28;20051;-61
2022/05/04 04:14:50;;;;;;;3.28;1.25;;;20.20;40.30;;;;;;4945539;29;20102;-60
2022/05/04 04:17:16;;;;;;;2.80;1.45;;;20.20;40.30;;;;;;4943807;29;20134;-60
2022/05/04 04:19:41;;;;;;;4.75;1.80;;;20.20;40.30;;;;;;4940147;28;20122;-60
2022/05/04 04:22:07;;;;;;;4.25;1.42;;;20.20;40.30;;;;;;4942511;29;20657;-60
2022/05/04 04:24:32;;;;;;;3.08;1.38;;;20.20;40.30;;;;;;4945164;28;20047;-60
2022/05/04 04:26:58;;;;;;;2.58;1.15;;;20.20;40.30;;;;;;4943646;28;20391;-60
2022/05/04 04:29:23;;;;;;;2.70;1.27;;;20.20;40.20;;;;;;4943929;28;20702;-59
2022/05/04 04:31:49;;;;;;;2.67;1.30;;;20.20;40.20;;;;;;4943380;29;20054;-61
2022/05/04 04:34:14;;;;;;;2.55;1.25;;;20.20;40.20;;;;;;4943451;29;20109;-61
2022/05/04 04:36:42;;;;;;;2.47;1.33;;;20.10;40.20;;;;;;4944085;28;20502;-61
2022/05/04 04:39:08;;;;;;;2.40;1.15;;;20.20;40.30;;;;;;4944102;29;20530;-60
2022/05/04 04:41:34;;;;;;;3.30;1.30;;;20.20;40.30;;;;;;4943393;29;20122;-60
2022/05/04 04:44:00;;;;;;;4.20;1.67;;;20.20;40.30;;;;;;4945087;29;20043;-60
2022/05/04 04:46:26;;;;;;;4.80;1.40;;;20.20;40.30;;;;;;4942229;29;20123;-60
2022/05/04 04:48:51;;;;;;;2.88;1.45;;;20.20;40.30;;;;;;4942541;29;20106;-60
2022/05/04 04:51:17;;;;;;;2.92;1.20;;;20.20;40.30;;;;;;4943039;28;20039;-60
2022/05/04 04:53:42;;;;;;;2.30;1.08;;;20.20;40.30;;;;;;4945751;28;20511;-60
2022/05/04 04:56:08;;;;;;;2.50;1.20;;;20.10;40.20;;;;;;4943932;29;20403;-61
2022/05/04 04:58:33;;;;;;;2.63;1.27;;;20.20;40.20;;;;;;4944057;29;20054;-60
2022/05/04 05:00:59;;;;;;;3.58;1.50;;;20.20;40.30;;;;;;4944834;28;20043;-60
2022/05/04 05:03:25;;;;;;;2.85;1.45;;;20.10;40.20;;;;;;4943389;28;20043;-61
2022/05/04 05:05:50;;;;;;;2.88;1.40;;;20.10;40.20;;;;;;4944634;28;20076;-61
2022/05/04 05:08:16;;;;;;;2.55;1.17;;;20.10;40.10;;;;;;4943874;28;20130;-61
2022/05/04 05:10:42;;;;;;;3.13;1.35;;;20.20;40.30;;;;;;4943737;28;20054;-60
2022/05/04 05:13:07;;;;;;;3.13;1.38;;;20.20;40.30;;;;;;4941956;29;20046;-61
2022/05/04 05:18:20;;;;;;;3.83;1.63;;;20.20;40.30;;;;;;4944038;29;20147;-60
2022/05/04 05:20:46;;;;;;;3.05;1.27;;;20.20;40.30;;;;;;4942595;29;20083;-60
2022/05/04 05:23:11;;;;;;;2.63;1.25;;;20.20;40.50;;;;;;4944680;28;20082;-60
2022/05/04 05:25:37;;;;;;;3.53;1.45;;;20.20;40.30;;;;;;4945131;29;20036;-60
2022/05/04 05:28:03;;;;;;;4.03;1.42;;;20.20;40.30;;;;;;4944315;28;20054;-60
2022/05/04 05:30:28;;;;;;;2.10;1.10;;;20.20;40.30;;;;;;4943652;28;20050;-60
2022/05/04 05:32:54;;;;;;;2.28;1.08;;;20.20;40.40;;;;;;4944742;28;20400;-59
2022/05/04 05:35:20;;;;;;;2.65;1.17;;;20.20;40.50;;;;;;4946138;28;20134;-58
2022/05/04 05:37:46;;;;;;;3.28;1.48;;;20.20;40.40;;;;;;4942924;28;20099;-60
2022/05/04 05:40:12;;;;;;;3.67;1.05;;;20.20;40.60;;;;;;4943384;28;20517;-60
2022/05/04 05:42:37;;;;;;;4.07;1.25;;;20.20;40.90;;;;;;4942935;29;20043;-58
2022/05/04 05:45:03;;;;;;;2.47;1.42;;;20.20;41.00;;;;;;4944703;28;20054;-60
2022/05/04 05:47:29;;;;;;;4.18;1.08;;;20.20;41.10;;;;;;4945260;28;20522;-60
2022/05/04 05:49:55;;;;;;;3.17;1.23;;;20.20;41.20;;;;;;4943690;29;20495;-60
2022/05/04 05:52:21;;;;;;;5.05;1.23;;;20.20;41.20;;;;;;4942785;29;20043;-60
2022/05/04 05:54:46;;;;;;;3.35;0.85;;;20.20;41.10;;;;;;4945656;28;20035;-59
2022/05/04 05:57:12;;;;;;;2.85;1.30;;;20.20;41.00;;;;;;4943418;29;20102;-59
2022/05/04 05:59:37;;;;;;;4.18;1.30;;;20.20;40.80;;;;;;4945318;28;20039;-62
2022/05/04 06:02:03;;;;;;;4.55;1.23;;;20.20;40.80;;;;;;4960024;28;20088;-62
2022/05/04 06:04:29;;;;;;;4.22;1.38;;;20.20;40.70;;;;;;4948186;28;20045;-61
2022/05/04 06:06:54;;;;;;;4.38;1.10;;;20.20;40.30;;;;;;4947113;28;20043;-62
2022/05/04 06:09:20;;;;;;;3.40;1.63;;;20.20;40.50;;;;;;4947714;28;20039;-59
2022/05/04 06:11:46;;;;;;;5.20;1.88;;;20.20;40.20;;;;;;4946921;28;20071;-60
2022/05/04 06:14:11;;;;;;;4.60;1.80;;;20.20;40.00;;;;;;4947450;28;20047;-61
2022/05/04 06:16:37;;;;;;;4.90;1.65;;;20.20;40.40;;;;;;4948332;29;20868;-60
2022/05/04 06:19:04;;;;;;;4.47;1.40;;;20.20;40.70;;;;;;4947722;28;20083;-61
2022/05/04 06:21:29;;;;;;;4.00;1.60;;;20.20;40.60;;;;;;4947276;29;20437;-59
2022/05/04 06:23:55;;;;;;;5.15;1.40;;;20.20;40.70;;;;;;4945544;28;20067;-60
2022/05/04 06:26:23;;;;;;;4.18;1.50;;;20.30;40.60;;;;;;4938632;28;20070;-61
2022/05/04 06:28:48;;;;;;;2.80;1.20;;;20.30;40.50;;;;;;4945252;28;20085;-61
2022/05/04 06:34:07;;;;;;;5.90;1.70;;;20.30;40.30;;;;;;4945915;29;20148;-63
2022/05/04 06:36:34;;;;;;;8.48;1.65;;;20.30;40.20;;;;;;4944354;29;20687;-61
2022/05/04 06:39:00;;;;;;;8.27;1.70;;;20.30;40.90;;;;;;4944769;28;20040;-61
2022/05/04 06:41:27;;;;;;;5.40;1.42;;;20.30;39.70;;;;;;4940352;29;20047;-59
2022/05/04 06:43:52;;;;;;;3.38;1.30;;;20.20;39.50;;;;;;4937903;29;20054;-61
2022/05/04 06:46:18;;;;;;;6.28;1.58;;;20.20;39.60;;;;;;4942601;29;20035;-58
2022/05/04 06:48:45;;;;;;;6.07;1.88;;;20.30;39.90;;;;;;4945681;28;20692;-60
2022/05/04 06:51:11;;;;;;;4.70;1.60;;;20.20;39.80;;;;;;4942352;28;20085;-59
2022/05/04 06:53:36;;;;;;;4.90;1.55;;;20.30;40.00;;;;;;4943428;28;20133;-60
2022/05/04 06:56:02;;;;;;;4.38;1.30;;;20.30;40.10;;;;;;4942672;28;20046;-60
2022/05/04 06:58:28;;;;;;;5.90;1.58;;;20.30;40.10;;;;;;4943344;29;20671;-60
2022/05/04 07:00:53;;;;;;;5.97;1.60;;;20.30;40.00;;;;;;4941876;29;20039;-59
2022/05/04 07:03:21;;;;;;;4.75;1.45;;;20.30;39.90;;;;;;4944200;29;20051;-60
2022/05/04 07:05:47;;;;;;;5.07;1.50;;;20.30;39.50;;;;;;4943162;28;20035;-60
2022/05/04 07:08:13;;;;;;;3.60;1.45;;;20.30;39.50;;;;;;4945930;29;20059;-57
2022/05/04 07:10:38;;;;;;;6.65;1.45;;;20.30;39.50;;;;;;4946209;28;20043;-59
2022/05/04 07:13:04;;;;;;;5.50;1.63;;;20.30;39.50;;;;;;4946924;28;20043;-60
2022/05/04 07:15:30;;;;;;;9.63;2.00;;;20.30;39.50;;;;;;4943490;29;20082;-60
2022/05/04 07:17:56;;;;;;;2.55;1.65;;;20.40;39.60;;;;;;4944737;28;20495;-61
2022/05/04 07:20:21;;;;;;;5.22;1.98;;;20.30;39.70;;;;;;4943822;28;20086;-59
2022/05/04 07:22:47;;;;;;;6.78;2.05;;;20.40;40.00;;;;;;4940089;28;20036;-60
2022/05/04 07:25:13;;;;;;;4.57;1.40;;;20.40;39.90;;;;;;4942633;28;20542;-60
2022/05/04 07:27:38;;;;;;;5.10;1.50;;;20.40;39.80;;;;;;4944209;29;20039;-59
2022/05/04 07:30:04;;;;;;;6.10;1.60;;;20.40;39.80;;;;;;4943357;29;20066;-61
2022/05/04 07:32:30;;;;;;;4.63;2.03;;;20.40;39.80;;;;;;4944381;29;20047;-60
2022/05/04 07:34:55;;;;;;;4.65;1.58;;;20.40;39.00;;;;;;4944898;28;20054;-60
2022/05/04 07:37:21;;;;;;;5.22;2.05;;;20.40;39.00;;;;;;4944540;28;20047;-60
2022/05/04 07:42:31;;;;;;;3.45;1.70;;;20.40;39.20;;;;;;4945301;28;20121;-61
2022/05/04 07:44:58;;;;;;;7.78;2.00;;;20.40;39.20;;;;;;4946337;28;20530;-62
2022/05/04 07:47:28;;;;;;;4.30;1.60;;;20.40;38.60;;;;;;4938623;28;20141;-60
2022/05/04 07:49:55;;;;;;;5.57;1.60;;;20.40;38.90;;;;;;4943029;28;20046;-61
2022/05/04 07:52:20;;;;;;;3.53;1.52;;;20.30;39.50;;;;;;4946563;29;20062;-60
2022/05/04 07:54:46;;;;;;;10.18;2.03;;;20.30;39.70;;;;;;4942160;29;20272;-61
2022/05/04 07:57:12;;;;;;;4.78;1.65;;;20.40;40.20;;;;;;4943062;28;20051;-59
2022/05/04 07:59:38;;;;;;;6.38;2.15;;;20.40;40.80;;;;;;4944006;28;20082;-60
2022/05/04 08:04:49;;;;;;;4.63;1.80;;;20.40;41.70;;;;;;4944411;29;20044;-60
2022/05/04 08:07:16;;;;;;;6.43;2.03;;;20.40;42.00;;;;;;4946926;28;20054;-60
2022/05/04 08:09:42;;;;;;;4.95;1.77;;;20.40;42.90;;;;;;4946035;28;20047;-62
2022/05/04 08:12:08;;;;;;;5.60;1.80;;;20.40;42.30;;;;;;4939552;28;20039;-59
2022/05/04 08:14:34;;;;;;;4.13;1.80;;;20.50;42.80;;;;;;4938135;29;20043;-59
2022/05/04 08:17:00;;;;;;;5.25;2.03;;;20.50;43.00;;;;;;4944403;28;20960;-60
2022/05/04 08:19:26;;;;;;;4.70;1.85;;;20.50;43.10;;;;;;4945362;28;20049;-61
2022/05/04 08:21:52;;;;;;;4.55;1.45;;;20.50;43.30;;;;;;4944719;28;20965;-61
2022/05/04 08:24:18;;;;;;;3.38;1.88;;;20.50;43.40;;;;;;4945027;28;20062;-60
2022/05/04 08:26:44;;;;;;;4.57;1.85;;;20.50;43.40;;;;;;4943730;28;20034;-60
2022/05/04 08:29:10;;;;;;;5.80;1.88;;;20.50;43.30;;;;;;4943582;28;20964;-59
2022/05/04 08:31:36;;;;;;;2.55;1.60;;;20.50;43.40;;;;;;4941945;28;20039;-60
2022/05/04 08:34:02;;;;;;;4.88;1.67;;;20.50;43.50;;;;;;4942555;28;20082;-60
2022/05/04 08:36:27;;;;;;;4.03;1.85;;;20.50;43.60;;;;;;4941761;28;20051;-60
2022/05/04 08:38:53;;;;;;;3.30;1.70;;;20.50;43.70;;;;;;4945228;28;20051;-60
2022/05/04 08:41:18;;;;;;;3.50;1.73;;;20.50;43.70;;;;;;4942455;28;20039;-60
2022/05/04 08:43:45;;;;;;;3.92;1.73;;;20.50;43.70;;;;;;4942054;29;20042;-61
2022/05/04 08:46:15;;;;;;;2.80;1.65;;;20.60;43.90;;;;;;4941476;28;20074;-60
2022/05/04 08:48:40;;;;;;;3.17;1.70;;;20.50;44.00;;;;;;4942934;29;20062;-61
2022/05/04 08:51:08;;;;;;;4.38;1.50;;;20.60;44.00;;;;;;4943206;28;20336;-61
2022/05/04 08:53:34;;;;;;;6.60;2.25;;;20.60;43.90;;;;;;4943001;28;20134;-60
2022/05/04 08:56:00;;;;;;;3.60;1.80;;;20.60;44.00;;;;;;4941288;28;20411;-60
2022/05/04 08:58:26;;;;;;;4.13;1.70;;;20.60;43.70;;;;;;4942792;29;20274;-61
2022/05/04 09:00:52;;;;;;;5.15;1.60;;;20.50;43.80;;;;;;4941417;28;20067;-59
2022/05/04 09:03:21;;;;;;;4.20;2.00;;;20.50;43.90;;;;;;4941156;28;20896;-60
2022/05/04 09:05:48;;;;;;;2.92;1.63;;;20.60;43.90;;;;;;4942197;29;20042;-64
2022/05/04 09:08:14;;;;;;;5.30;1.80;;;20.50;43.80;;;;;;4943759;28;20164;-61
2022/05/04 09:10:44;;;;;;;4.05;1.50;;;20.50;43.60;;;;;;4944157;28;20093;-64
2022/05/04 09:13:10;;;;;;;3.28;1.75;;;20.60;43.70;;;;;;4944381;28;20035;-57
2022/05/04 09:15:38;;;;;;;6.38;2.10;;;20.60;43.70;;;;;;4942831;29;20071;-58
2022/05/04 09:18:10;;;;;;;4.57;1.75;;;20.60;43.70;;;;;;4943386;28;20506;-60
2022/05/04 09:20:47;;;;;;;5.78;1.80;;;20.60;43.70;;;;;;4942600;28;20040;-60
2022/05/04 09:23:16;;;;;;;4.50;2.05;;;20.60;43.60;;;;;;4944776;28;20121;-58
2022/05/04 09:25:42;;;;;;;3.88;1.55;;;20.60;43.70;;;;;;4943936;28;20035;-59
2022/05/04 09:28:12;;;;;;;3.30;1.60;;;20.50;43.20;;;;;;4945511;28;20046;-62
2022/05/04 09:30:49;;;;;;;3.95;2.10;;;20.50;42.70;;;;;;4942268;28;20452;-62
2022/05/04 09:33:21;;;;;;;4.28;1.90;;;20.50;42.00;;;;;;4942537;28;20134;-61
2022/05/04 09:35:47;;;;;;;3.22;1.70;;;20.50;42.10;;;;;;4942757;28;20066;-61
2022/05/04 09:46:45;;;;;;;4.50;1.50;;;20.50;42.60;;;;;;4947315;29;20121;-58
2022/05/04 09:49:21;;;;;;;5.53;1.60;;;20.50;42.60;;;;;;4946800;29;20447;-60
2022/05/04 09:51:51;;;;;;;2.40;1.50;;;20.50;42.30;;;;;;4947346;29;20246;-59
2022/05/04 09:54:25;;;;;;;4.32;1.83;;;20.50;42.40;;;;;;4947889;28;20102;-59
2022/05/04 09:56:59;;;;;;;5.55;2.03;;;20.50;42.70;;;;;;4947273;28;20601;-59
2022/05/04 09:59:30;;;;;;;5.63;1.60;;;20.60;43.10;;;;;;4940246;29;20047;-60
2022/05/04 10:01:56;;;;;;;;;;;20.60;43.30;;;;;;4945702;29;20045;-59
2022/05/04 10:04:25;;;;;;;3.65;1.35;;;20.60;42.80;;;;;;4939799;28;19918;-59
2022/05/04 10:06:52;;;;;;;3.92;1.50;;;20.50;43.00;;;;;;4945547;28;20058;-57
2022/05/04 10:09:18;;;;;;;4.22;2.17;;;20.50;42.60;;;;;;4944014;29;20118;-58
2022/05/04 10:11:45;;;;;;;5.22;1.88;;;20.50;42.70;;;;;;4945785;28;20039;-59
2022/05/04 10:14:13;;;;;;;4.82;2.10;;;20.50;42.50;;;;;;4945867;29;20075;-60
2022/05/04 10:16:42;;;;;;;4.13;1.55;;;20.50;42.60;;;;;;4946557;28;20051;-58
2022/05/04 10:19:15;;;;;;;5.70;1.80;;;20.50;42.40;;;;;;4946303;29;20040;-59
2022/05/04 10:21:43;;;;;;;5.68;2.10;;;20.50;42.50;;;;;;4946446;29;20388;-58
2022/05/04 10:24:10;;;;;;;4.80;2.05;;;20.50;42.40;;;;;;4945201;28;20043;-59
2022/05/04 10:26:39;;;;;;;4.13;1.70;;;20.50;42.60;;;;;;4944620;29;20046;-59
2022/05/04 10:32:35;;;;;;;4.50;2.08;;;20.60;43.10;;;;;;4948794;28;20042;-58
2022/05/04 10:35:20;;;;;;;4.47;2.00;;;20.50;42.80;;;;;;4945602;28;20086;-59
2022/05/04 10:37:58;;;;;;;2.47;1.95;;;20.50;42.90;;;;;;4947310;28;20048;-58
2022/05/04 10:40:27;;;;;;;4.68;1.85;;;20.50;42.90;;;;;;4945326;28;20031;-58
2022/05/04 10:42:55;;;;;;;3.70;1.70;;;20.50;42.80;;;;;;4947074;28;20423;-57
2022/05/04 10:45:32;;;;;;;4.18;2.13;;;20.50;42.50;;;;;;4947486;28;20074;-59
2022/05/04 10:48:19;;;;;;;5.38;1.60;;;20.50;42.70;;;;;;4941882;28;20407;-57
2022/05/04 10:50:53;;;;;;;4.75;1.60;;;20.50;42.80;;;;;;4943129;28;20043;-59
2022/05/04 10:53:28;;;;;;;4.38;1.75;;;20.60;42.90;;;;;;4943937;28;20055;-59
2022/05/04 10:56:00;;;;;;;3.05;1.70;;;20.50;42.70;;;;;;4945477;29;20054;-60
2022/05/04 10:58:44;;;;;;;6.35;1.83;;;20.50;42.70;;;;;;4945979;28;20051;-58
2022/05/04 11:01:16;;;;;;;4.47;1.60;;;20.50;42.30;;;;;;4945002;28;20149;-59
2022/05/04 11:03:54;;;;;;;6.00;1.75;;;20.50;42.50;;;;;;4945143;29;20123;-58
2022/05/04 11:06:31;;;;;;;5.88;1.80;;;20.60;42.70;;;;;;4941063;28;20127;-58
2022/05/04 11:09:02;;;;;;;5.50;1.70;;;20.60;42.90;;;;;;4940969;28;20051;-59
2022/05/04 11:11:28;;;;;;;7.15;1.85;;;20.50;42.50;;;;;;4942429;28;20039;-58
2022/05/04 11:13:54;;;;;;;7.32;2.33;;;20.60;42.70;;;;;;4944555;28;20526;-58
2022/05/04 11:16:21;;;;;;;6.28;1.80;;;20.60;43.60;;;;;;4941937;29;20039;-59
2022/05/04 11:18:47;;;;;;;6.63;2.15;;;20.60;43.10;;;;;;4943985;29;20071;-58
2022/05/04 11:21:14;;;;;;;5.15;1.45;;;20.50;43.00;;;;;;4943692;28;20397;-58
2022/05/04 11:23:45;;;;;;;3.72;1.65;;;20.60;43.10;;;;;;4945519;28;20403;-59
2022/05/04 11:26:26;;;;;;;3.78;1.67;;;20.60;43.10;;;;;;4946643;29;20569;-59
2022/05/04 11:28:53;;;;;;;3.75;1.65;;;20.60;43.00;;;;;;4946262;28;20043;-58
2022/05/04 11:31:20;;;;;;;4.35;1.50;;;20.60;42.90;;;;;;4946481;28;20767;-58
2022/05/04 11:33:48;;;;;;;4.30;1.70;;;20.60;42.90;;;;;;4947034;28;20105;-59
2022/05/04 11:36:21;;;;;;;5.00;1.77;;;20.60;42.90;;;;;;4945075;28;20047;-58
2022/05/04 11:38:48;;;;;;;2.70;1.50;;;20.60;42.80;;;;;;4945482;29;20042;-57
2022/05/04 11:41:15;;;;;;;3.75;1.60;;;20.60;42.70;;;;;;4946105;28;20043;-58
2022/05/04 11:43:42;;;;;;;6.22;2.08;;;20.60;42.60;;;;;;4946370;28;20042;-60
2022/05/04 11:46:12;;;;;;;5.22;1.80;;;20.60;42.70;;;;;;4938311;28;20118;-60
2022/05/04 11:48:42;;;;;;;3.80;1.65;;;20.60;42.60;;;;;;4943924;28;20075;-57
2022/05/04 11:51:09;;;;;;;3.22;1.45;;;20.60;42.50;;;;;;4937428;28;20043;-58
2022/05/04 11:53:35;;;;;;;4.57;1.85;;;20.60;42.60;;;;;;4944517;28;20053;-59
2022/05/04 11:56:03;;;;;;;5.75;1.70;;;20.60;42.40;;;;;;4945123;28;20046;-59
2022/05/04 11:58:30;;;;;;;3.60;1.42;;;20.60;42.40;;;;;;4944776;28;20043;-58
2022/05/04 12:00:56;;;;;;;4.75;1.63;;;20.60;42.30;;;;;;4945157;28;20379;-58
2022/05/04 12:03:25;;;;;;;3.30;1.48;;;20.60;42.40;;;;;;4927145;28;20039;-60
2022/05/04 12:05:53;;;;;;;2.90;1.85;;;20.60;42.40;;;;;;4944630;28;20843;-57
2022/05/04 12:08:19;;;;;;;4.03;1.52;;;20.60;42.40;;;;;;4945845;28;20098;-58
2022/05/04 12:10:47;;;;;;;3.30;1.60;;;20.60;42.30;;;;;;4944732;28;20091;-57
2022/05/04 12:13:15;;;;;;;4.97;1.80;;;20.60;42.30;;;;;;4945561;29;20055;-58
2022/05/04 12:15:42;;;;;;;4.70;1.40;;;20.60;42.10;;;;;;4944632;28;20055;-60
2022/05/04 12:18:09;;;;;;;3.13;1.50;;;20.50;42.10;;;;;;4945115;28;20050;-59
2022/05/04 12:20:34;;;;;;;4.30;1.70;;;20.50;42.00;;;;;;4946004;28;20042;-59
2022/05/04 12:23:03;;;;;;;3.00;1.45;;;20.60;42.00;;;;;;4942296;28;20043;-59
2022/05/04 12:25:30;;;;;;;3.55;1.70;;;20.60;42.10;;;;;;4944169;28;20054;-58
2022/05/04 12:27:57;;;;;;;3.60;1.55;;;20.50;42.00;;;;;;4943298;28;20086;-59
2022/05/04 12:33:13;;;;;;;2.50;1.50;;;20.60;42.20;;;;;;4941743;28;20070;-58
2022/05/04 12:35:44;;;;;;;5.85;1.58;;;20.50;42.20;;;;;;4944799;28;20082;-60
2022/05/04 12:38:13;;;;;;;4.70;1.20;;;20.60;42.20;;;;;;4944585;28;20043;-58
2022/05/04 12:40:39;;;;;;;3.53;1.65;;;20.60;42.30;;;;;;4943552;28;20126;-59
2022/05/04 12:43:05;;;;;;;3.70;1.42;;;20.50;42.20;;;;;;4943866;28;20045;-57
2022/05/04 12:45:36;;;;;;;2.88;1.33;;;20.60;42.30;;;;;;4942393;28;20122;-58
2022/05/04 12:48:06;;;;;;;3.15;1.83;;;20.60;42.30;;;;;;4942743;28;20134;-59
2022/05/04 12:50:33;;;;;;;3.53;1.50;;;20.60;42.40;;;;;;4944463;28;20067;-59
2022/05/04 12:52:59;;;;;;;4.47;1.48;;;20.60;42.30;;;;;;4943195;28;20118;-57
2022/05/04 12:58:09;;;;;;;3.35;1.25;;;20.60;42.30;;;;;;4942119;28;20760;-57
2022/05/04 13:00:36;;;;;;;3.40;1.40;;;20.60;42.10;;;;;;4942628;28;20039;-61
2022/05/04 13:03:02;;;;;;;4.78;1.67;;;20.60;42.00;;;;;;4925739;28;20040;-60
2022/05/04 13:05:28;;;;;;;2.72;1.20;;;20.60;42.10;;;;;;4940307;28;20050;-58
2022/05/04 13:07:53;;;;;;;4.28;1.40;;;20.60;42.20;;;;;;4943593;28;20047;-59
2022/05/04 13:10:19;;;;;;;2.72;1.73;;;20.60;42.30;;;;;;4943476;28;20246;-58
2022/05/04 13:12:45;;;;;;;2.97;1.33;;;20.60;42.30;;;;;;4945380;28;20035;-59
2022/05/04 13:15:10;;;;;;;2.95;1.15;;;20.60;42.30;;;;;;4947103;28;20058;-59
2022/05/04 13:17:36;;;;;;;6.63;1.50;;;20.60;42.20;;;;;;4940228;28;20035;-58
2022/05/04 13:20:03;;;;;;;3.83;1.35;;;20.60;42.40;;;;;;4947546;28;20311;-58
2022/05/04 13:22:28;;;;;;;4.15;1.58;;;20.60;42.50;;;;;;4944193;29;20145;-58